Time;durP1;ratioP1;P1;durP2;ratioP2;P2;SDS_P1;SDS_P2;PMS_P1;PMS_P2;Temp;Humidity;BMP_temperature;BMP_pressure;BME280_temperature;BME280_humidity;BME280_pressure;Samples;Min_cycle;Max_cycle;Signal;HPM_P1;HPM_P2
2022/03/26 00:00:46;;;;;;;24.05;14.23;;;;;;;6.93;56.86;102483.34;5014660;28;20037;-86
2022/03/26 00:03:11;;;;;;;20.33;12.73;;;;;;;7.04;56.59;102499.56;5031012;28;20034;-86
2022/03/26 00:05:37;;;;;;;21.30;13.25;;;;;;;6.75;56.82;102471.38;5031034;28;20112;-86
2022/03/26 00:08:03;;;;;;;22.38;14.23;;;;;;;6.92;56.85;102506.50;5030693;28;20029;-86
2022/03/26 00:10:28;;;;;;;21.77;13.73;;;;;;;6.82;56.57;102487.66;5030890;28;20475;-87
2022/03/26 00:12:56;;;;;;;20.90;13.30;;;;;;;6.98;56.41;102520.22;5030499;28;20114;-87
2022/03/26 00:15:22;;;;;;;23.05;13.35;;;;;;;7.01;56.04;102522.75;5014328;28;20033;-87
2022/03/26 00:17:47;;;;;;;26.48;13.27;;;;;;;6.91;56.26;102505.66;5013894;28;20033;-88
2022/03/26 00:20:13;;;;;;;23.88;13.57;;;;;;;6.90;56.06;102521.94;5031938;28;20037;-87
2022/03/26 00:22:38;;;;;;;21.75;12.48;;;;;;;6.94;55.85;102526.22;5030323;28;20491;-87
2022/03/26 00:25:04;;;;;;;19.17;12.35;;;;;;;6.72;55.86;102507.41;5013997;28;20056;-87
2022/03/26 00:27:30;;;;;;;21.38;13.25;;;;;;;6.91;55.85;102536.53;4997703;28;20079;-86
2022/03/26 00:29:56;;;;;;;22.85;13.05;;;;;;;6.93;55.86;102528.78;5030525;28;20034;-87
2022/03/26 00:32:22;;;;;;;20.35;13.05;;;;;;;6.92;55.93;102538.22;5030526;28;20036;-87
2022/03/26 00:34:48;;;;;;;24.05;13.15;;;;;;;6.56;54.08;102514.31;5030411;28;20029;-87
2022/03/26 00:37:14;;;;;;;21.90;12.77;;;;;;;6.33;54.96;102523.78;5013674;28;20064;-88
2022/03/26 00:39:40;;;;;;;21.90;13.93;;;;;;;5.97;55.36;102512.66;5013719;28;20029;-87
2022/03/26 00:42:08;;;;;;;22.40;13.15;;;;;;;6.03;55.89;102546.06;5030117;28;20095;-86
2022/03/26 00:44:37;;;;;;;21.42;12.68;;;;;;;5.93;56.10;102549.50;5030154;28;20164;-86
2022/03/26 00:47:03;;;;;;;26.67;12.77;;;;;;;5.80;56.68;102550.31;5030422;28;20522;-86
2022/03/26 00:49:28;;;;;;;20.55;12.27;;;;;;;5.47;57.17;102518.56;5030227;28;20033;-86
2022/03/26 00:51:54;;;;;;;20.00;13.10;;;;;;;5.28;57.62;102496.25;5012568;28;20087;-86
2022/03/26 00:54:19;;;;;;;25.45;12.95;;;;;;;5.48;57.68;102532.25;5013556;28;20083;-86
2022/03/26 00:56:45;;;;;;;24.23;12.85;;;;;;;5.51;57.89;102541.69;5029836;28;20040;-86
2022/03/26 00:59:10;;;;;;;21.85;11.88;;;;;;;5.53;57.74;102550.25;5013451;28;20037;-86
2022/03/26 01:01:36;;;;;;;22.52;13.68;;;;;;;5.58;57.44;102544.25;5029845;28;20036;-86
2022/03/26 01:04:01;;;;;;;22.25;13.07;;;;;;;5.63;57.36;102541.72;5029898;28;20033;-86
2022/03/26 01:06:27;;;;;;;20.85;12.93;;;;;;;5.59;57.50;102547.66;5013241;28;20502;-86
2022/03/26 01:08:53;;;;;;;21.13;13.40;;;;;;;5.60;57.72;102546.81;5029926;28;20502;-88
2022/03/26 01:11:18;;;;;;;20.63;12.57;;;;;;;5.57;57.48;102531.41;4996738;28;20426;-87
2022/03/26 01:13:45;;;;;;;22.00;12.75;;;;;;;5.57;57.75;102544.25;5029755;28;20033;-87
2022/03/26 01:16:12;;;;;;;20.52;12.00;;;;;;;5.56;57.75;102555.38;5029563;28;20033;-87
2022/03/26 01:18:38;;;;;;;18.27;12.07;;;;;;;5.55;57.65;102553.66;5013609;28;20562;-85
2022/03/26 01:21:04;;;;;;;19.67;12.13;;;;;;;5.51;57.86;102554.53;5029154;28;20028;-86
2022/03/26 01:23:29;;;;;;;19.30;11.77;;;;;;;5.38;58.55;102554.47;5013267;28;20033;-86
2022/03/26 01:25:55;;;;;;;25.13;12.80;;;;;;;5.23;58.93;102559.56;5029590;28;20049;-84
2022/03/26 01:28:21;;;;;;;21.45;12.93;;;;;;;5.15;59.43;102556.09;4996819;28;20040;-86
2022/03/26 01:30:46;;;;;;;18.45;11.55;;;;;;;4.85;59.25;102500.38;5029285;28;20025;-86
2022/03/26 01:33:12;;;;;;;21.77;12.50;;;;;;;5.03;59.25;102532.97;5013080;28;20400;-86
2022/03/26 01:35:38;;;;;;;24.63;12.77;;;;;;;5.09;59.48;102545.78;5012834;28;20022;-87
2022/03/26 01:38:05;;;;;;;21.70;12.20;;;;;;;5.08;59.53;102555.19;5029433;28;20510;-87
2022/03/26 01:40:32;;;;;;;23.23;12.63;;;;;;;5.03;59.52;102545.78;5030645;28;20165;-86
2022/03/26 01:42:59;;;;;;;21.35;12.40;;;;;;;5.18;59.31;102566.34;5029400;28;20545;-86
2022/03/26 01:45:25;;;;;;;23.65;12.85;;;;;;;5.18;59.17;102566.34;5029371;28;20046;-86
2022/03/26 01:47:50;;;;;;;22.15;13.10;;;;;;;5.24;59.04;102566.41;5012840;28;20029;-88
2022/03/26 01:50:16;;;;;;;23.65;12.25;;;;;;;5.16;59.58;102570.63;5029015;28;20033;-88
2022/03/26 01:52:41;;;;;;;20.85;12.50;;;;;;;5.17;59.55;102562.09;5029258;28;20029;-86
2022/03/26 01:55:07;;;;;;;19.95;12.98;;;;;;;5.05;60.25;102564.59;5012857;28;20026;-86
2022/03/26 01:57:33;;;;;;;20.40;12.45;;;;;;;4.99;60.18;102567.97;5029316;28;20078;-86
2022/03/26 01:59:58;;;;;;;19.40;12.48;;;;;;;5.05;59.96;102575.72;5012886;28;20506;-87
2022/03/26 02:02:25;;;;;;;22.30;13.65;;;;;;;5.02;60.11;102564.59;4998158;28;20135;-87
2022/03/26 02:04:51;;;;;;;21.52;12.90;;;;;;;5.03;59.94;102576.56;5032471;28;20056;-86
2022/03/26 02:07:16;;;;;;;23.35;14.00;;;;;;;5.07;59.94;102580.84;5033240;28;20029;-86
2022/03/26 02:09:43;;;;;;;24.70;13.05;;;;;;;4.95;60.18;102563.69;5016716;28;20034;-86
2022/03/26 02:12:28;;;;;;;25.05;13.05;;;;;;;4.86;60.38;102567.06;5016360;28;20514;-86
2022/03/26 02:14:54;;;;;;;29.30;14.60;;;;;;;4.91;60.29;102567.06;5033069;28;20028;-86
2022/03/26 02:17:20;;;;;;;24.23;13.90;;;;;;;4.86;60.33;102568.78;5032799;28;20463;-86
2022/03/26 02:19:52;;;;;;;21.05;13.52;;;;;;;4.95;60.27;102579.09;4999280;28;20064;-87
2022/03/26 02:22:18;;;;;;;23.40;13.45;;;;;;;4.90;60.43;102581.59;5032977;28;20026;-86
2022/03/26 02:24:43;;;;;;;20.40;12.45;;;;;;;4.84;60.43;102578.16;5032836;28;20514;-86
2022/03/26 02:27:09;;;;;;;22.17;13.43;;;;;;;4.92;60.30;102573.06;5032831;28;20060;-87
2022/03/26 02:29:34;;;;;;;21.85;13.32;;;;;;;4.86;60.37;102569.63;5032817;28;20106;-86
2022/03/26 02:32:01;;;;;;;22.48;13.10;;;;;;;4.90;60.71;102585.88;5033086;28;20045;-87
2022/03/26 02:34:27;;;;;;;21.48;12.93;;;;;;;4.78;61.18;102573.84;5032263;28;20033;-85
2022/03/26 02:36:56;;;;;;;21.70;12.38;;;;;;;4.80;61.21;102577.28;5032672;28;20025;-86
2022/03/26 02:39:21;;;;;;;21.63;12.77;;;;;;;4.85;61.05;102582.44;5032718;28;20030;-85
2022/03/26 02:41:47;;;;;;;22.98;12.52;;;;;;;4.89;60.64;102579.91;5016072;28;20032;-86
2022/03/26 02:44:12;;;;;;;21.67;12.93;;;;;;;4.78;60.92;102571.28;4999635;28;20029;-87
2022/03/26 02:46:38;;;;;;;22.90;12.65;;;;;;;4.43;61.04;102534.31;5032485;28;20427;-86
2022/03/26 02:49:03;;;;;;;21.88;12.93;;;;;;;4.79;60.92;102588.38;5015616;28;20029;-87
2022/03/26 02:51:29;;;;;;;23.67;13.38;;;;;;;4.58;61.34;102583.13;5015624;28;20037;-87
2022/03/26 02:53:54;;;;;;;23.98;13.20;;;;;;;4.53;61.14;102574.56;5032414;28;20040;-86
2022/03/26 02:56:20;;;;;;;21.98;12.73;;;;;;;4.46;61.26;102563.38;5015856;28;20033;-86
2022/03/26 02:58:47;;;;;;;22.70;13.52;;;;;;;4.66;60.94;102599.41;5032394;28;20037;-86
2022/03/26 03:01:13;;;;;;;24.23;13.68;;;;;;;4.66;61.27;102596.84;4999496;28;20048;-86
2022/03/26 03:03:39;;;;;;;24.67;14.38;;;;;;;4.71;61.00;102597.72;5031517;28;20029;-88
2022/03/26 03:06:04;;;;;;;21.25;13.82;;;;;;;4.64;61.05;102587.44;5031911;28;20063;-85
2022/03/26 03:08:29;;;;;;;22.02;13.30;;;;;;;4.45;60.99;102548.00;5032139;28;20505;-86
2022/03/26 03:10:55;;;;;;;24.17;13.20;;;;;;;4.67;60.83;102572.94;5032169;28;20041;-86
2022/03/26 03:13:22;;;;;;;24.73;14.30;;;;;;;4.74;60.63;102592.63;5031071;28;20032;-87
2022/03/26 03:15:48;;;;;;;24.65;14.10;;;;;;;4.59;60.57;102572.00;5031979;28;20073;-86
2022/03/26 03:18:14;;;;;;;25.73;13.80;;;;;;;4.79;60.66;102600.34;5031729;28;20059;-86
2022/03/26 03:20:39;;;;;;;21.15;12.88;;;;;;;4.55;60.51;102562.59;5031742;28;20064;-86
2022/03/26 03:23:05;;;;;;;20.33;12.77;;;;;;;4.72;60.49;102602.03;5031797;28;20053;-86
2022/03/26 03:25:31;;;;;;;21.25;13.55;;;;;;;4.71;60.48;102592.59;5031667;28;20545;-85
2022/03/26 03:27:57;;;;;;;24.05;14.32;;;;;;;4.76;60.28;102593.50;5031727;28;20025;-87
2022/03/26 03:30:23;;;;;;;24.73;14.27;;;;;;;4.67;60.32;102587.47;5031639;28;20072;-86
2022/03/26 03:32:48;;;;;;;24.08;13.32;;;;;;;4.53;60.49;102572.00;5031351;28;20049;-87
2022/03/26 03:35:14;;;;;;;23.45;13.77;;;;;;;4.55;60.83;102577.97;5031321;28;20033;-85
2022/03/26 03:37:40;;;;;;;22.50;14.23;;;;;;;4.55;60.63;102583.09;5014969;28;20111;-87
2022/03/26 03:40:06;;;;;;;23.65;14.48;;;;;;;4.43;61.07;102590.72;5031577;28;20025;-86
2022/03/26 03:42:31;;;;;;;22.98;13.75;;;;;;;4.49;60.88;102601.00;5031433;28;20026;-87
2022/03/26 03:44:57;;;;;;;26.58;15.02;;;;;;;4.50;60.76;102595.00;5031392;28;20036;-86
2022/03/26 03:47:22;;;;;;;21.58;14.18;;;;;;;4.26;60.45;102547.00;5031104;28;20479;-87
2022/03/26 03:49:48;;;;;;;24.98;14.63;;;;;;;4.50;60.56;102595.00;5031218;28;20033;-87
2022/03/26 03:52:14;;;;;;;25.40;16.13;;;;;;;4.40;60.61;102575.28;5014802;28;20025;-86
2022/03/26 03:54:39;;;;;;;23.88;14.85;;;;;;;4.21;60.94;102538.41;5031042;28;20036;-86
2022/03/26 03:57:05;;;;;;;22.13;14.55;;;;;;;4.42;60.63;102578.72;5031427;28;20030;-86
2022/03/26 03:59:30;;;;;;;22.63;14.77;;;;;;;4.47;60.59;102595.00;5031122;28;20021;-86
2022/03/26 04:01:56;;;;;;;24.38;14.98;;;;;;;4.30;60.78;102592.28;5014363;28;20549;-86
2022/03/26 04:04:21;;;;;;;22.83;14.40;;;;;;;4.39;60.87;102602.63;5014525;28;20425;-85
2022/03/26 04:06:47;;;;;;;25.83;15.05;;;;;;;4.36;60.68;102588.94;5014361;28;20029;-87
2022/03/26 04:09:12;;;;;;;23.98;15.20;;;;;;;4.32;60.56;102591.44;5030759;28;20461;-87
2022/03/26 04:11:37;;;;;;;22.73;14.85;;;;;;;4.25;60.67;102589.72;5014092;28;20053;-87
2022/03/26 04:14:04;;;;;;;28.98;16.05;;;;;;;4.36;60.52;102597.47;5014453;28;20029;-87
2022/03/26 04:16:30;;;;;;;23.98;15.23;;;;;;;4.37;60.25;102603.47;5014005;28;20060;-87
2022/03/26 04:18:56;;;;;;;26.02;15.18;;;;;;;4.28;60.23;102597.41;4997984;28;20110;-86
2022/03/26 04:21:21;;;;;;;29.33;15.35;;;;;;;4.21;60.54;102598.19;5014290;28;20025;-86
2022/03/26 04:23:47;;;;;;;25.73;15.73;;;;;;;4.20;60.50;102595.63;5014049;28;20033;-86
2022/03/26 04:26:12;;;;;;;24.70;14.77;;;;;;;4.12;60.44;102580.19;5030861;28;20483;-86
2022/03/26 04:28:37;;;;;;;23.80;14.38;;;;;;;3.83;60.61;102553.44;5014060;28;20033;-85
2022/03/26 04:31:04;;;;;;;25.50;14.88;;;;;;;3.90;60.97;102580.84;5029975;28;20056;-86
2022/03/26 04:33:30;;;;;;;25.50;15.98;;;;;;;4.07;60.69;102606.63;5014127;28;20025;-87
2022/03/26 04:35:55;;;;;;;23.73;15.55;;;;;;;3.73;61.09;102561.03;5014066;28;20505;-86
2022/03/26 04:38:21;;;;;;;24.10;14.88;;;;;;;4.00;60.81;102609.09;5030438;28;20030;-87
2022/03/26 04:40:46;;;;;;;27.77;14.75;;;;;;;3.97;60.43;102608.22;5030215;28;20415;-87
2022/03/26 04:43:13;;;;;;;22.55;13.95;;;;;;;3.97;60.52;102608.22;5030131;28;20057;-86
2022/03/26 04:45:38;;;;;;;24.10;15.15;;;;;;;3.98;60.56;102610.78;5029929;28;20044;-86
2022/03/26 04:48:04;;;;;;;26.38;15.18;;;;;;;3.99;60.81;102615.06;5013854;28;20030;-86
2022/03/26 04:50:30;;;;;;;23.02;13.93;;;;;;;4.04;60.33;102617.69;5013708;28;20025;-87
2022/03/26 04:52:56;;;;;;;25.17;14.98;;;;;;;3.99;59.94;102607.38;5013676;28;20052;-86
2022/03/26 04:55:21;;;;;;;22.58;14.35;;;;;;;4.03;60.25;102613.38;5030131;28;20040;-86
2022/03/26 04:57:48;;;;;;;24.75;15.23;;;;;;;4.11;60.00;102621.16;5029980;28;20025;-87
2022/03/26 05:00:14;;;;;;;24.70;15.27;;;;;;;4.10;60.69;102622.84;5013547;28;20104;-86
2022/03/26 05:02:40;;;;;;;25.55;14.95;;;;;;;4.05;60.46;102616.84;5029945;28;20033;-86
2022/03/26 05:05:06;;;;;;;24.10;14.32;;;;;;;4.03;60.57;102608.25;5029939;28;20026;-86
2022/03/26 05:07:47;;;;;;;24.30;14.32;;;;;;;3.99;60.85;102604.81;5029902;28;20060;-87
2022/03/26 05:10:19;;;;;;;22.58;14.00;;;;;;;4.22;60.23;102620.41;5030033;28;20029;-86
2022/03/26 05:12:45;;;;;;;;;;;;;;;4.26;60.08;102627.28;5014389;28;20057;-86
2022/03/26 05:15:11;;;;;;;24.42;13.38;;;;;;;4.23;60.37;102624.72;5029829;28;20367;-86
2022/03/26 05:17:37;;;;;;;22.77;14.50;;;;;;;4.20;60.30;102634.91;5030069;28;20037;-85
2022/03/26 05:20:04;;;;;;;24.08;14.05;;;;;;;4.27;60.37;102634.13;5029750;28;20061;-86
2022/03/26 05:22:29;;;;;;;23.65;14.18;;;;;;;4.30;60.13;102631.59;5029801;28;20021;-86
2022/03/26 05:24:55;;;;;;;26.23;15.02;;;;;;;4.32;59.59;102640.13;5013058;28;20040;-87
2022/03/26 05:27:20;;;;;;;26.85;14.57;;;;;;;4.33;59.86;102648.72;5029313;28;20490;-87
2022/03/26 05:29:46;;;;;;;26.17;14.30;;;;;;;4.43;59.63;102652.22;4997001;28;20052;-87
2022/03/26 05:32:12;;;;;;;24.83;14.45;;;;;;;4.41;60.23;102643.63;5029680;28;20025;-86
2022/03/26 05:34:38;;;;;;;23.98;14.40;;;;;;;4.08;59.75;102588.69;5013053;28;20036;-86
2022/03/26 05:37:04;;;;;;;26.15;15.55;;;;;;;4.55;59.42;102642.91;5029149;28;20479;-85
2022/03/26 05:39:30;;;;;;;23.67;15.43;;;;;;;4.59;59.32;102642.09;5029675;28;20029;-86
2022/03/26 05:41:56;;;;;;;30.13;16.65;;;;;;;4.60;58.99;102642.94;5013184;28;20446;-86
2022/03/26 05:44:22;;;;;;;30.10;16.40;;;;;;;4.53;59.53;102630.94;5029273;28;20029;-87
2022/03/26 05:46:47;;;;;;;26.67;16.63;;;;;;;4.64;59.42;102643.84;5029522;28;20030;-86
2022/03/26 05:49:13;;;;;;;24.27;16.20;;;;;;;4.66;58.97;102648.13;5029196;28;20029;-85
2022/03/26 05:51:39;;;;;;;28.88;16.17;;;;;;;4.67;58.76;102634.47;5029147;28;20036;-86
2022/03/26 05:54:04;;;;;;;31.13;15.73;;;;;;;4.89;58.50;102641.44;5029672;28;20036;-86
2022/03/26 05:56:36;;;;;;;27.73;16.50;;;;;;;4.92;58.71;102639.75;5029027;28;20387;-87
2022/03/26 05:59:05;;;;;;;27.15;16.42;;;;;;;4.97;58.35;102638.09;5029717;28;20033;-86
2022/03/26 06:01:33;;;;;;;29.00;16.98;;;;;;;4.99;58.09;102628.69;5029176;28;20033;-87
2022/03/26 06:03:59;;;;;;;26.42;16.40;;;;;;;5.04;57.51;102629.59;5029187;28;20461;-86
2022/03/26 06:06:25;;;;;;;31.00;17.40;;;;;;;5.21;57.71;102637.34;5012835;28;20033;-85
2022/03/26 06:08:51;;;;;;;29.88;15.98;;;;;;;5.26;56.89;102641.69;5029327;28;20051;-87
2022/03/26 06:11:17;;;;;;;25.45;15.10;;;;;;;5.19;56.27;102624.53;5012302;28;20049;-86
2022/03/26 06:13:42;;;;;;;29.60;16.95;;;;;;;5.28;56.52;102633.97;5029021;28;20525;-85
2022/03/26 06:16:08;;;;;;;28.35;16.20;;;;;;;5.23;56.28;102610.88;5012474;28;20038;-86
2022/03/26 06:18:34;;;;;;;33.35;17.80;;;;;;;5.30;56.32;102617.72;5028718;28;20034;-87
2022/03/26 06:21:05;;;;;;;24.17;14.38;;;;;;;5.49;55.80;102644.34;5012565;28;20112;-87
2022/03/26 06:23:31;;;;;;;26.58;15.57;;;;;;;5.56;55.97;102646.09;5013185;28;20030;-86
2022/03/26 06:25:57;;;;;;;30.10;16.98;;;;;;;5.54;55.99;102644.38;5029135;28;20029;-86
2022/03/26 06:28:23;;;;;;;34.50;16.83;;;;;;;5.62;55.86;102640.13;5029043;28;20060;-86
2022/03/26 06:30:49;;;;;;;30.50;18.67;;;;;;;5.83;55.65;102647.06;5028740;28;20021;-87
2022/03/26 06:33:16;;;;;;;30.70;18.08;;;;;;;5.89;54.67;102635.06;5028942;28;20038;-87
2022/03/26 06:35:42;;;;;;;23.58;14.52;;;;;;;6.01;53.49;102626.59;5029089;28;20024;-87
2022/03/26 06:38:08;;;;;;;28.88;16.27;;;;;;;6.23;53.35;102642.88;5028940;28;20021;-86
2022/03/26 06:40:34;;;;;;;27.75;17.38;;;;;;;6.33;53.55;102642.88;5011521;28;20041;-87
2022/03/26 06:43:00;;;;;;;30.38;17.90;;;;;;;6.46;53.13;102646.31;4996102;28;20033;-86
2022/03/26 06:45:25;;;;;;;28.40;17.85;;;;;;;6.38;52.79;102645.44;5028410;28;20033;-88
2022/03/26 06:47:51;;;;;;;28.60;17.08;;;;;;;6.33;53.05;102639.47;5012783;28;20095;-87
2022/03/26 06:50:17;;;;;;;32.83;17.95;;;;;;;6.31;52.72;102611.19;5031754;28;20505;-87
2022/03/26 06:52:42;;;;;;;26.13;17.55;;;;;;;6.68;52.00;102659.16;5015625;28;20541;-86
2022/03/26 06:55:09;;;;;;;29.83;18.85;;;;;;;6.86;51.55;102654.00;5031740;28;20029;-85
2022/03/26 06:57:35;;;;;;;29.58;18.48;;;;;;;6.85;51.30;102642.00;5015726;28;20067;-88
2022/03/26 07:00:00;;;;;;;31.48;17.75;;;;;;;6.94;51.16;102631.72;5015732;28;20079;-87
2022/03/26 07:02:27;;;;;;;31.30;19.50;;;;;;;7.07;50.94;102628.22;5032248;28;20112;-87
2022/03/26 07:04:54;;;;;;;32.78;19.20;;;;;;;7.29;50.56;102654.81;5032091;28;20025;-87
2022/03/26 07:07:19;;;;;;;32.70;20.73;;;;;;;7.26;50.42;102644.50;5032105;28;20026;-86
2022/03/26 07:09:45;;;;;;;30.73;19.83;;;;;;;7.30;50.20;102619.59;4998807;28;20507;-87
2022/03/26 07:12:12;;;;;;;31.45;20.60;;;;;;;7.30;50.89;102643.63;5031798;28;20099;-86
2022/03/26 07:14:38;;;;;;;37.90;20.95;;;;;;;7.33;50.25;102645.34;5015888;28;20499;-85
2022/03/26 07:17:05;;;;;;;38.45;21.15;;;;;;;7.46;50.20;102647.00;4998941;28;20057;-88
2022/03/26 07:19:32;;;;;;;35.53;20.13;;;;;;;7.51;50.38;102632.41;5031801;28;20029;-87
2022/03/26 07:21:57;;;;;;;34.78;21.33;;;;;;;7.65;49.53;102633.19;5015052;28;20380;-87
2022/03/26 07:24:23;;;;;;;32.20;21.05;;;;;;;7.58;49.80;102623.78;5031319;28;20083;-86
2022/03/26 07:26:49;;;;;;;32.97;21.10;;;;;;;7.82;49.16;102642.56;5031744;28;20052;-86
2022/03/26 07:29:14;;;;;;;33.30;20.95;;;;;;;7.93;48.82;102633.03;5015500;28;20032;-86
2022/03/26 07:31:40;;;;;;;29.50;20.30;;;;;;;8.12;48.65;102636.34;5031686;28;20022;-87
2022/03/26 07:34:06;;;;;;;31.30;19.35;;;;;;;8.22;48.59;102619.94;5031640;28;20025;-86
2022/03/26 07:36:32;;;;;;;33.22;18.45;;;;;;;8.20;48.56;102617.41;5031261;28;20458;-87
2022/03/26 07:38:58;;;;;;;29.77;19.38;;;;;;;8.47;48.39;102643.88;5031297;28;20044;-87
2022/03/26 07:41:24;;;;;;;30.60;19.30;;;;;;;8.49;47.89;102644.72;5015067;28;20542;-86
2022/03/26 07:43:50;;;;;;;28.13;19.38;;;;;;;8.59;47.81;102641.19;5031271;28;20080;-87
2022/03/26 07:46:18;;;;;;;29.38;18.83;;;;;;;8.59;47.75;102628.28;5031178;28;20538;-87
2022/03/26 07:48:45;;;;;;;33.50;19.52;;;;;;;8.76;47.22;102629.00;5015168;28;20025;-87
2022/03/26 07:51:11;;;;;;;31.65;19.67;;;;;;;8.94;46.73;102616.75;5031110;28;20021;-86
2022/03/26 07:53:36;;;;;;;31.55;20.77;;;;;;;9.08;46.60;102635.56;5014395;28;20037;-88
2022/03/26 07:56:02;;;;;;;35.53;19.95;;;;;;;9.17;46.60;102638.91;5031114;28;20032;-87
2022/03/26 07:58:29;;;;;;;29.63;19.90;;;;;;;9.24;46.33;102636.22;5030978;28;20029;-87
2022/03/26 08:00:55;;;;;;;27.48;19.23;;;;;;;9.31;46.06;102636.16;5030438;28;20422;-88
2022/03/26 08:03:22;;;;;;;32.63;20.60;;;;;;;9.49;45.82;102642.81;4998042;28;20479;-87
2022/03/26 08:05:48;;;;;;;30.85;19.98;;;;;;;9.53;45.61;102623.81;4998335;28;20480;-87
2022/03/26 08:08:13;;;;;;;30.20;19.77;;;;;;;9.61;45.86;102631.47;5013990;28;20033;-87
2022/03/26 08:10:39;;;;;;;26.92;19.50;;;;;;;9.66;45.23;102621.94;5030918;28;20033;-87
2022/03/26 08:13:05;;;;;;;32.22;20.38;;;;;;;9.82;44.98;102640.66;5032547;28;20045;-88
2022/03/26 08:15:30;;;;;;;34.10;20.02;;;;;;;9.86;44.67;102632.00;5030974;28;20398;-87
2022/03/26 08:17:58;;;;;;;32.17;20.27;;;;;;;9.96;44.73;102644.78;5030683;28;20029;-89
2022/03/26 08:20:26;;;;;;;33.00;20.88;;;;;;;10.05;44.62;102634.31;5014360;28;20072;-88
2022/03/26 08:22:52;;;;;;;28.42;19.20;;;;;;;10.06;44.46;102633.44;5013862;28;20044;-88
2022/03/26 08:26:19;;;;;;;27.52;18.70;;;;;;;10.05;44.43;102605.88;5030223;28;20026;-87
2022/03/26 08:28:09;;;;;;;24.25;16.83;;;;;;;10.38;44.19;102621.75;5031333;28;20029;-86
2022/03/26 08:30:35;;;;;;;28.45;17.45;;;;;;;10.60;43.87;102630.84;5014470;28;20033;-87
2022/03/26 08:33:01;;;;;;;37.15;20.52;;;;;;;10.69;43.80;102635.03;5030671;28;20510;-87
2022/03/26 08:35:38;;;;;;;20.52;14.30;;;;;;;10.82;43.09;102636.53;5030365;28;20490;-87
2022/03/26 08:38:04;;;;;;;21.40;12.35;;;;;;;10.97;43.31;102627.63;5029937;28;20109;-86
2022/03/26 08:40:30;;;;;;;21.75;12.55;;;;;;;11.12;43.26;102616.97;4997194;28;20440;-87
2022/03/26 08:42:58;;;;;;;24.30;17.77;;;;;;;11.08;42.43;102619.66;5013502;28;20048;-87
2022/03/26 08:45:27;;;;;;;25.20;17.40;;;;;;;11.14;43.92;102622.97;5030199;28;20033;-87
2022/03/26 08:47:53;;;;;;;21.10;14.32;;;;;;;11.33;42.80;102615.69;5013747;28;20499;-88
2022/03/26 08:50:19;;;;;;;23.85;16.48;;;;;;;11.54;41.98;102606.63;4996823;28;20044;-87
2022/03/26 08:52:49;;;;;;;24.92;16.20;;;;;;;11.57;41.63;102609.13;5013747;28;20045;-87
2022/03/26 08:55:15;;;;;;;21.48;15.70;;;;;;;11.43;42.01;102606.00;5014121;28;20076;-87
2022/03/26 08:57:41;;;;;;;23.60;15.80;;;;;;;11.48;42.15;102598.97;5030285;28;20116;-88
2022/03/26 09:00:08;;;;;;;24.58;15.57;;;;;;;11.61;41.59;102608.19;5029921;28;20025;-88
2022/03/26 09:02:34;;;;;;;22.05;15.75;;;;;;;11.67;41.90;102605.44;5013328;28;20025;-88
2022/03/26 09:04:59;;;;;;;21.23;15.52;;;;;;;11.52;41.77;102600.63;5029359;28;20029;-88
2022/03/26 09:07:25;;;;;;;20.75;15.35;;;;;;;11.66;42.51;102601.16;5029541;28;20040;-88
2022/03/26 09:09:50;;;;;;;22.70;15.55;;;;;;;11.91;41.85;102605.84;5013252;28;20415;-88
2022/03/26 09:12:16;;;;;;;21.27;14.77;;;;;;;12.06;41.20;102597.69;4995929;28;20049;-88
2022/03/26 09:14:41;;;;;;;19.15;13.95;;;;;;;12.24;41.08;102606.78;5013347;28;20123;-88
2022/03/26 09:17:07;;;;;;;20.80;13.70;;;;;;;12.31;41.10;102593.63;5013320;28;20037;-89
2022/03/26 09:19:32;;;;;;;22.35;14.88;;;;;;;12.16;40.15;102568.03;5029451;28;20040;-87
2022/03/26 09:21:58;;;;;;;19.05;13.23;;;;;;;12.49;40.25;102588.84;5029865;28;20483;-89
2022/03/26 09:24:23;;;;;;;21.83;15.15;;;;;;;12.44;40.44;102573.38;5013312;28;20120;-87
2022/03/26 09:26:49;;;;;;;21.85;13.95;;;;;;;12.59;40.42;102587.72;5013173;28;20114;-89
2022/03/26 09:29:16;;;;;;;20.23;14.43;;;;;;;12.46;40.05;102535.25;4996650;28;20478;-88
2022/03/26 09:31:42;;;;;;;20.85;14.63;;;;;;;12.90;39.25;102585.16;5029575;28;20025;-88
2022/03/26 09:34:08;;;;;;;21.20;14.13;;;;;;;13.02;39.49;102587.41;5012744;28;20501;-88
2022/03/26 09:36:33;;;;;;;22.38;15.18;;;;;;;13.00;39.00;102573.63;5012998;28;20486;-88
2022/03/26 09:38:58;;;;;;;20.92;14.80;;;;;;;13.08;39.20;102582.06;5029597;28;20025;-88
2022/03/26 09:41:24;;;;;;;20.95;13.55;;;;;;;12.99;39.39;102555.47;5029431;28;20033;-88
2022/03/26 09:43:49;;;;;;;21.33;14.10;;;;;;;13.07;38.96;102556.09;5029564;28;20491;-88
2022/03/26 09:46:15;;;;;;;22.08;15.00;;;;;;;12.84;39.31;102522.97;5012855;28;20034;-88
2022/03/26 09:48:41;;;;;;;19.77;14.88;;;;;;;13.14;38.89;102547.22;5028954;28;20041;-89
2022/03/26 09:51:07;;;;;;;20.27;13.82;;;;;;;13.34;38.90;102557.91;5012840;28;20418;-88
2022/03/26 09:53:33;;;;;;;17.73;13.48;;;;;;;13.46;38.52;102549.75;5029209;28;20033;-90
2022/03/26 09:55:59;;;;;;;20.80;14.25;;;;;;;13.47;38.20;102535.88;5029332;28;20025;-88
2022/03/26 09:58:25;;;;;;;19.90;14.63;;;;;;;13.48;37.64;102519.38;5029281;28;20458;-89
2022/03/26 10:00:53;;;;;;;20.73;14.07;;;;;;;13.78;38.04;102543.56;5029412;28;20049;-88
2022/03/26 10:03:19;;;;;;;21.08;13.50;;;;;;;13.87;37.25;102547.63;5030244;28;20025;-88
2022/03/26 10:05:45;;;;;;;22.75;15.35;;;;;;;13.90;37.10;102546.66;5029089;28;20034;-88
2022/03/26 10:08:21;;;;;;;19.70;13.80;;;;;;;14.05;37.03;102540.94;5029079;28;20530;-89
2022/03/26 10:10:47;;;;;;;23.35;14.52;;;;;;;14.15;37.29;102533.69;5013383;28;20037;-90
2022/03/26 10:13:17;;;;;;;18.80;14.43;;;;;;;14.26;36.49;102526.38;5028849;28;20108;-89
2022/03/26 10:16:07;;;;;;;21.92;14.45;;;;;;;14.45;35.89;102535.25;5028943;28;20091;-88
2022/03/26 10:18:51;;;;;;;23.13;14.98;;;;;;;14.40;35.99;102516.31;5028842;28;20026;-90
2022/03/26 10:21:21;;;;;;;23.65;13.30;;;;;;;14.50;36.42;102509.94;4996318;28;20510;-89
2022/03/26 10:23:48;;;;;;;19.83;14.18;;;;;;;14.69;36.20;102511.88;5030751;28;20052;-88
2022/03/26 10:26:14;;;;;;;21.10;13.52;;;;;;;14.81;36.62;102511.41;5032932;28;20026;-89
2022/03/26 10:28:40;;;;;;;19.92;13.75;;;;;;;14.87;35.69;102509.44;5032903;28;20029;-89
2022/03/26 10:34:09;;;;;;;18.08;13.43;;;;;;;14.95;36.59;102514.38;5033980;28;20107;-90
2022/03/26 10:36:39;;;;;;;16.80;13.68;;;;;;;14.96;35.39;102494.38;5016399;28;20108;-89
2022/03/26 10:39:25;;;;;;;22.15;14.02;;;;;;;15.12;35.69;102501.53;5032858;28;20037;-88
2022/03/26 10:41:54;;;;;;;18.77;13.13;;;;;;;15.33;35.24;102492.03;5032622;28;20045;-89
2022/03/26 10:44:29;;;;;;;21.95;13.18;;;;;;;15.50;34.67;102492.22;5016764;28;20533;-91
2022/03/26 10:46:58;;;;;;;19.65;12.75;;;;;;;15.62;34.31;102475.25;5032119;28;20384;-89
2022/03/26 10:49:27;;;;;;;18.55;12.82;;;;;;;15.78;34.10;102489.38;5032513;28;20049;-88
2022/03/26 10:51:53;;;;;;;18.70;13.15;;;;;;;15.82;34.46;102463.16;5032476;28;20033;-89
2022/03/26 10:54:18;;;;;;;21.58;13.50;;;;;;;16.14;33.99;102480.94;4999502;28;20376;-89
2022/03/26 10:56:44;;;;;;;17.92;13.55;;;;;;;16.16;33.58;102473.88;5032533;28;20044;-89
2022/03/26 10:59:09;;;;;;;17.15;13.15;;;;;;;16.31;33.41;102470.59;5032337;28;20103;-88
2022/03/26 11:01:35;;;;;;;19.55;13.40;;;;;;;16.37;32.99;102450.34;5031923;28;20036;-89
2022/03/26 11:04:01;;;;;;;17.02;12.82;;;;;;;16.53;32.83;102462.66;5015845;28;20037;-89
2022/03/26 11:06:27;;;;;;;19.92;14.07;;;;;;;16.49;32.84;102457.63;5015885;28;20041;-90
2022/03/26 11:08:59;;;;;;;23.83;15.60;;;;;;;16.57;32.88;102448.53;5016005;28;20033;-89
2022/03/26 11:11:26;;;;;;;21.58;14.75;;;;;;;16.80;32.85;102437.06;5031848;28;20049;-89
2022/03/26 11:13:51;;;;;;;19.40;13.32;;;;;;;16.79;31.83;102430.13;5032232;28;20026;-89